Welcome to Boston ARTCC, where excellence is served daily with a cup of MOCHA HAGoTDI


Whether you are a pilot, controller, or a little of both; ZBW is the premier airspace in VATSIM

News

vZBW Social Media

Be sure to give us a like/follow on Facebook and Twitter to stay in the loop regarding events, procedures, and more!

_________________________________________________________

16 hours ago

ZBW Procedures Update

New procedures are in effect within ZBW as of 13 November 2014.   ZBW controllers will accomodate both the old RNAV arrivals as well as the new ones for some transition period.  Pilots should identfy the RNAV arrival they are planning to fly in their flight plan. Radar vector arrival procedures are also still available and in effect for those pilots unable to fly RNAV arrivals.

KBOS: 

The KRANN3 RNAV arrival has been removed and replaced by the ROBUC1 RNAV arrivalIn addition, the OOSHN and QUABN STARs have been updated with major changes to the crossing restrictions. They are now the QUABN3 and the OOSHN3. Lastly, the SCUPP4 arrival has been removed.

Real-World Letter to Airmen

KPVD:

Arrival updated to WIPOR3. Additionally, some small changes to the airport diagram.

KSYR:

Airport Diagram update, terminal construction.

KBTV:

Burlington Clearance/Delivery created, frequency added to charts.

KBED/KBVY/KLWM:

ZELKA1 RNAV arrival created.

_________________________________________________________


1 week ago

ZBW Website NOTAM

Attention ZBW Controllers (and TS3 visitors):


Please update your settings to reflect the host as "bostonartcc.net" instead of "ts3.bostonartcc.net". Due to what appears to be local DNS caching issues, the old ts3 subdomain will no longer respond.


Please note that all email addresses are the same post-migration, however you may also elect to contact staff members through the roster.


Student Controllers

Please use the training center to request training sessions. This will provide a direct link for staff members to more easily monitor and manage training sessions.

1 month ago

ATC Online

Controller Position Frequency Sign-On
No controllers currently online.

Air Traffic

Inbound: 0 Outbound: 0 View All

Weather parsed

KBOS 221954Z 22015G22KT 10SM FEW160 SCT200 BKN300 07/M12 A3016 RMK AO2 SLP213 VIRGA N-E T00671122

KMHT 221953Z 20007KT 10SM BKN130 BKN250 04/M13 A3011 RMK AO2 SLP216 T00391133

KBDL 221951Z 21012G19KT 10SM FEW100 FEW200 SCT220 BKN250 07/M13 A3019 RMK AO2 SLP224 T00671128

KPVD 221951Z 23013G21KT 10SM SCT150 BKN250 05/M08 A3023 RMK AO2 SLP237 T00501083